Time;durP1;ratioP1;P1;durP2;ratioP2;P2;SDS_P1;SDS_P2;PMS_P1;PMS_P2;Temp;Humidity;BMP_temperature;BMP_pressure;BME280_temperature;BME280_humidity;BME280_pressure;Samples;Min_cycle;Max_cycle;Signal;HPM_P1;HPM_P2
2023/09/25 00:01:26;;;;;;;4.00;3.70;;;;;;;;;;5076006;28;20444;-61
2023/09/25 00:03:53;;;;;;;5.00;4.60;;;;;;;;;;5076008;28;20474;-61
2023/09/25 00:06:20;;;;;;;3.77;3.57;;;;;;;;;;5076073;28;20444;-61
2023/09/25 00:08:47;;;;;;;4.73;4.30;;;;;;;;;;5075747;28;21009;-61
2023/09/25 00:11:15;;;;;;;4.90;4.50;;;;;;;;;;5075863;28;20534;-61
2023/09/25 00:13:42;;;;;;;4.33;3.93;;;;;;;;;;5075774;28;20878;-61
2023/09/25 00:16:13;;;;;;;4.33;3.93;;;;;;;;;;5075923;28;20522;-61
2023/09/25 00:18:40;;;;;;;4.23;3.97;;;;;;;;;;5075950;28;20496;-61
2023/09/25 00:21:06;;;;;;;4.23;3.93;;;;;;;;;;5075744;28;20443;-61
2023/09/25 00:23:34;;;;;;;4.60;3.73;;;;;;;;;;5075651;28;20516;-61
2023/09/25 00:26:04;;;;;;;4.07;3.77;;;;;;;;;;5075541;28;21030;-61
2023/09/25 00:28:32;;;;;;;3.90;3.63;;;;;;;;;;5075809;28;21037;-61
2023/09/25 00:30:59;;;;;;;3.77;3.50;;;;;;;;;;5075458;28;21022;-61
2023/09/25 00:33:26;;;;;;;3.70;3.50;;;;;;;;;;5075559;28;20534;-61
2023/09/25 00:35:54;;;;;;;4.00;3.70;;;;;;;;;;5075518;28;20807;-61
2023/09/25 00:38:21;;;;;;;4.40;3.90;;;;;;;;;;5075252;28;20554;-61
2023/09/25 00:40:48;;;;;;;3.53;3.30;;;;;;;;;;5075276;28;20443;-61
2023/09/25 00:43:15;;;;;;;4.10;3.70;;;;;;;;;;5075429;28;20448;-61
2023/09/25 00:45:44;;;;;;;4.10;3.80;;;;;;;;;;5075289;28;20487;-61
2023/09/25 00:48:18;;;;;;;4.10;3.80;;;;;;;;;;5075315;28;20450;-61
2023/09/25 00:50:45;;;;;;;4.40;3.97;;;;;;;;;;5075201;28;20521;-61
2023/09/25 00:53:12;;;;;;;3.60;3.40;;;;;;;;;;5075082;28;20440;-61
2023/09/25 00:55:39;;;;;;;5.20;3.67;;;;;;;;;;5075225;28;20530;-60
2023/09/25 00:58:07;;;;;;;4.03;3.73;;;;;;;;;;5075161;28;20462;-61
2023/09/25 01:00:35;;;;;;;4.20;3.90;;;;;;;;;;5074998;28;20439;-61
2023/09/25 01:03:03;;;;;;;3.83;3.53;;;;;;;;;;5074937;28;20807;-61
2023/09/25 01:05:32;;;;;;;4.50;4.10;;;;;;;;;;5074763;28;20569;-61
2023/09/25 01:07:59;;;;;;;3.47;3.17;;;;;;;;;;5074744;28;20448;-61
2023/09/25 01:10:27;;;;;;;4.00;3.80;;;;;;;;;;5074933;28;20493;-61
2023/09/25 01:12:54;;;;;;;3.77;3.50;;;;;;;;;;5074816;28;20497;-61
2023/09/25 01:15:22;;;;;;;3.60;3.40;;;;;;;;;;5074779;28;20447;-61
2023/09/25 01:17:48;;;;;;;4.20;3.83;;;;;;;;;;5074604;28;20538;-61
2023/09/25 01:20:18;;;;;;;3.90;3.60;;;;;;;;;;5074525;28;20501;-61
2023/09/25 01:22:46;;;;;;;4.43;4.13;;;;;;;;;;5074575;28;20466;-61
2023/09/25 01:25:15;;;;;;;4.40;4.10;;;;;;;;;;5074504;28;20479;-61
2023/09/25 01:27:43;;;;;;;3.53;3.33;;;;;;;;;;5074553;28;20443;-61
2023/09/25 01:30:10;;;;;;;4.60;4.20;;;;;;;;;;5074293;28;21018;-61
2023/09/25 01:32:37;;;;;;;4.27;3.97;;;;;;;;;;5073771;28;20534;-61
2023/09/25 01:35:05;;;;;;;4.43;4.13;;;;;;;;;;5074201;28;20513;-61
2023/09/25 01:37:32;;;;;;;3.90;3.53;;;;;;;;;;5074164;28;21054;-61
2023/09/25 01:40:00;;;;;;;4.77;4.47;;;;;;;;;;5074234;28;20530;-61
2023/09/25 01:42:27;;;;;;;4.07;3.67;;;;;;;;;;5074027;28;20523;-61
2023/09/25 01:44:54;;;;;;;4.63;4.27;;;;;;;;;;5073892;28;21077;-61
2023/09/25 01:47:21;;;;;;;4.20;4.00;;;;;;;;;;5073884;28;20543;-61
2023/09/25 01:49:48;;;;;;;4.17;3.87;;;;;;;;;;5074096;28;20447;-61
2023/09/25 01:52:17;;;;;;;4.80;4.40;;;;;;;;;;5074043;28;20486;-61
2023/09/25 01:54:44;;;;;;;5.20;4.70;;;;;;;;;;5073845;28;20935;-61
2023/09/25 01:57:12;;;;;;;4.50;4.20;;;;;;;;;;5073778;28;21030;-61
2023/09/25 01:59:39;;;;;;;4.50;4.10;;;;;;;;;;5073786;28;20493;-61
2023/09/25 02:02:06;;;;;;;4.67;4.37;;;;;;;;;;5073630;28;20448;-61
2023/09/25 02:04:33;;;;;;;6.10;4.30;;;;;;;;;;5073757;28;20467;-61
2023/09/25 02:07:00;;;;;;;4.10;3.80;;;;;;;;;;5073854;28;20447;-61
2023/09/25 02:09:27;;;;;;;3.80;3.50;;;;;;;;;;5073706;28;20501;-61
2023/09/25 02:11:54;;;;;;;4.20;3.80;;;;;;;;;;5073553;28;20526;-61
2023/09/25 02:14:22;;;;;;;4.13;3.83;;;;;;;;;;5073499;28;20440;-61
2023/09/25 02:16:49;;;;;;;4.80;4.40;;;;;;;;;;5073644;28;20526;-61
2023/09/25 02:19:16;;;;;;;3.90;3.60;;;;;;;;;;5073613;28;20539;-61
2023/09/25 02:21:43;;;;;;;4.53;4.00;;;;;;;;;;5073529;28;20436;-61
2023/09/25 02:24:10;;;;;;;4.27;3.97;;;;;;;;;;5073326;28;20443;-61
2023/09/25 02:26:38;;;;;;;4.53;4.13;;;;;;;;;;5073335;28;20447;-61
2023/09/25 02:29:05;;;;;;;5.03;4.63;;;;;;;;;;5073257;28;20455;-61
2023/09/25 02:31:33;;;;;;;4.57;4.27;;;;;;;;;;5073548;28;20444;-61
2023/09/25 02:34:00;;;;;;;5.07;4.67;;;;;;;;;;5073336;28;20535;-61
2023/09/25 02:36:27;;;;;;;5.10;4.70;;;;;;;;;;5073378;28;20451;-61
2023/09/25 02:38:54;;;;;;;4.83;4.37;;;;;;;;;;5073000;28;20562;-61
2023/09/25 02:41:21;;;;;;;4.03;3.83;;;;;;;;;;5073133;28;20447;-61
2023/09/25 02:43:48;;;;;;;4.80;4.40;;;;;;;;;;5072176;28;20531;-61
2023/09/25 02:46:14;;;;;;;6.00;5.50;;;;;;;;;;5073136;28;20846;-61
2023/09/25 02:48:43;;;;;;;4.67;4.27;;;;;;;;;;5073216;28;20543;-61
2023/09/25 02:51:10;;;;;;;5.37;4.97;;;;;;;;;;5073123;28;20542;-61
2023/09/25 02:53:37;;;;;;;8.00;4.67;;;;;;;;;;5073050;28;20450;-61
2023/09/25 02:56:04;;;;;;;5.67;5.17;;;;;;;;;;5072906;28;20445;-61
2023/09/25 02:58:31;;;;;;;4.80;4.40;;;;;;;;;;5073110;28;20536;-61
2023/09/25 03:00:59;;;;;;;5.13;4.70;;;;;;;;;;5073182;28;20453;-61
2023/09/25 03:03:26;;;;;;;5.73;5.23;;;;;;;;;;5072948;28;20455;-61
2023/09/25 03:05:55;;;;;;;5.10;4.70;;;;;;;;;;5072874;28;20586;-61
2023/09/25 03:08:22;;;;;;;5.77;5.17;;;;;;;;;;5072812;28;20539;-61
2023/09/25 03:10:49;;;;;;;4.53;4.20;;;;;;;;;;5072730;28;20511;-61
2023/09/25 03:13:16;;;;;;;5.67;5.17;;;;;;;;;;5073059;28;20811;-61
2023/09/25 03:15:43;;;;;;;5.00;4.60;;;;;;;;;;5072806;28;20443;-61
2023/09/25 03:18:11;;;;;;;4.87;4.57;;;;;;;;;;5072831;28;20447;-61
2023/09/25 03:20:39;;;;;;;5.40;4.93;;;;;;;;;;5072724;28;20478;-60
2023/09/25 03:23:07;;;;;;;5.67;5.17;;;;;;;;;;5072727;28;20447;-61
2023/09/25 03:25:35;;;;;;;5.03;4.70;;;;;;;;;;5072540;28;20475;-61
2023/09/25 03:28:03;;;;;;;5.73;5.23;;;;;;;;;;5072808;28;20517;-61
2023/09/25 03:30:30;;;;;;;5.30;4.80;;;;;;;;;;5072690;28;20454;-61
2023/09/25 03:32:57;;;;;;;5.97;5.37;;;;;;;;;;5072630;28;20810;-61
2023/09/25 03:35:24;;;;;;;5.50;5.00;;;;;;;;;;5072673;28;20439;-61
2023/09/25 03:37:51;;;;;;;5.03;4.53;;;;;;;;;;5072276;28;21002;-61
2023/09/25 03:40:19;;;;;;;6.57;5.50;;;;;;;;;;5072712;28;20518;-61
2023/09/25 03:42:46;;;;;;;5.70;5.20;;;;;;;;;;5072685;28;20448;-61
2023/09/25 03:45:13;;;;;;;5.30;4.90;;;;;;;;;;5072506;28;20852;-61
2023/09/25 03:47:41;;;;;;;7.07;5.70;;;;;;;;;;5072832;28;20534;-61
2023/09/25 03:50:08;;;;;;;4.97;4.57;;;;;;;;;;5072425;28;20447;-61
2023/09/25 03:52:35;;;;;;;4.97;4.53;;;;;;;;;;5072275;28;20822;-61
2023/09/25 03:55:02;;;;;;;5.77;5.27;;;;;;;;;;5073048;28;20470;-61
2023/09/25 03:57:30;;;;;;;5.73;5.23;;;;;;;;;;5076241;28;20445;-61
2023/09/25 03:59:57;;;;;;;6.17;5.40;;;;;;;;;;5076166;28;20489;-61
2023/09/25 04:02:24;;;;;;;6.30;5.80;;;;;;;;;;5076007;28;20907;-61
2023/09/25 04:04:52;;;;;;;5.93;5.37;;;;;;;;;;5075841;28;20534;-61
2023/09/25 04:07:18;;;;;;;6.50;6.00;;;;;;;;;;5076056;28;20448;-61
2023/09/25 04:09:45;;;;;;;6.33;5.73;;;;;;;;;;5075775;28;20933;-61
2023/09/25 04:12:14;;;;;;;5.83;5.00;;;;;;;;;;5075823;28;20443;-61
2023/09/25 04:14:42;;;;;;;6.50;5.90;;;;;;;;;;5075700;28;20969;-61
2023/09/25 04:17:10;;;;;;;6.70;4.83;;;;;;;;;;5075826;28;20815;-61
2023/09/25 04:19:37;;;;;;;6.20;4.80;;;;;;;;;;5075624;28;20812;-61
2023/09/25 04:22:06;;;;;;;7.50;4.80;;;;;;;;;;5075872;28;20857;-61
2023/09/25 04:24:34;;;;;;;5.63;4.83;;;;;;;;;;5075687;28;20443;-61
2023/09/25 04:27:02;;;;;;;8.70;5.70;;;;;;;;;;5075568;28;20479;-61
2023/09/25 04:29:29;;;;;;;6.00;5.40;;;;;;;;;;5075534;28;20459;-61
2023/09/25 04:31:57;;;;;;;10.83;5.67;;;;;;;;;;5075461;28;20449;-61
2023/09/25 04:34:24;;;;;;;4.70;4.30;;;;;;;;;;5075366;28;20447;-60
2023/09/25 04:36:52;;;;;;;5.70;5.17;;;;;;;;;;5075395;28;20839;-61
2023/09/25 04:39:20;;;;;;;5.97;5.27;;;;;;;;;;5075424;28;20799;-61
2023/09/25 04:41:47;;;;;;;5.00;4.60;;;;;;;;;;5075299;28;20448;-61
2023/09/25 04:44:14;;;;;;;6.80;6.20;;;;;;;;;;5075236;28;20439;-61
2023/09/25 04:46:41;;;;;;;6.40;5.90;;;;;;;;;;5075032;28;20845;-61
2023/09/25 04:49:12;;;;;;;6.07;5.43;;;;;;;;;;5075298;28;20443;-61
2023/09/25 04:51:39;;;;;;;7.60;5.33;;;;;;;;;;5075265;28;20448;-60
2023/09/25 04:54:06;;;;;;;5.63;5.03;;;;;;;;;;5074999;28;20443;-61
2023/09/25 04:56:33;;;;;;;7.93;6.60;;;;;;;;;;5074959;28;20968;-61
2023/09/25 04:59:00;;;;;;;6.03;5.43;;;;;;;;;;5074883;28;20530;-60
2023/09/25 05:01:28;;;;;;;6.13;5.53;;;;;;;;;;5075010;28;20489;-60
2023/09/25 05:03:55;;;;;;;6.10;5.50;;;;;;;;;;5075030;28;20534;-61
2023/09/25 05:06:23;;;;;;;6.87;6.37;;;;;;;;;;5074354;28;20566;-61
2023/09/25 05:08:50;;;;;;;6.80;6.20;;;;;;;;;;5074426;28;20806;-61
2023/09/25 05:11:17;;;;;;;6.50;5.90;;;;;;;;;;5074704;28;20943;-61
2023/09/25 05:13:44;;;;;;;6.53;5.87;;;;;;;;;;5074558;28;20459;-61
2023/09/25 05:16:11;;;;;;;6.70;6.10;;;;;;;;;;5074691;28;20454;-61
2023/09/25 05:18:38;;;;;;;7.13;6.43;;;;;;;;;;5074634;28;20883;-61
2023/09/25 05:21:05;;;;;;;6.30;5.70;;;;;;;;;;5074463;28;20443;-61
2023/09/25 05:23:34;;;;;;;9.63;8.60;;;;;;;;;;5074419;28;20535;-61
2023/09/25 05:26:01;;;;;;;6.53;5.57;;;;;;;;;;5074293;28;20877;-61
2023/09/25 05:28:29;;;;;;;6.80;5.80;;;;;;;;;;5074491;28;20443;-61
2023/09/25 05:30:56;;;;;;;8.93;6.50;;;;;;;;;;5074362;28;20444;-61
2023/09/25 05:33:23;;;;;;;7.27;6.50;;;;;;;;;;5074183;28;20451;-61
2023/09/25 05:35:50;;;;;;;7.30;6.57;;;;;;;;;;5074071;28;20974;-61
2023/09/25 05:38:17;;;;;;;6.73;6.13;;;;;;;;;;5073942;28;20467;-61
2023/09/25 05:40:46;;;;;;;6.47;5.87;;;;;;;;;;5073815;28;20479;-61
2023/09/25 05:43:13;;;;;;;7.30;5.77;;;;;;;;;;5074128;28;20451;-61
2023/09/25 05:45:40;;;;;;;7.70;6.97;;;;;;;;;;5073928;28;20489;-60
2023/09/25 05:48:07;;;;;;;7.27;6.33;;;;;;;;;;5073682;28;20995;-61
2023/09/25 05:50:36;;;;;;;7.10;6.40;;;;;;;;;;5073904;28;20435;-61
2023/09/25 05:53:03;;;;;;;7.23;6.63;;;;;;;;;;5074098;28;20530;-61
2023/09/25 05:55:30;;;;;;;7.07;6.47;;;;;;;;;;5073780;28;20443;-61
2023/09/25 05:57:58;;;;;;;7.60;6.10;;;;;;;;;;5073776;28;20526;-61
2023/09/25 06:00:26;;;;;;;6.67;6.00;;;;;;;;;;5073793;28;20528;-61
2023/09/25 06:02:53;;;;;;;8.33;6.30;;;;;;;;;;5073633;28;20440;-61
2023/09/25 06:05:20;;;;;;;8.23;6.97;;;;;;;;;;5073534;28;20527;-61
2023/09/25 06:07:47;;;;;;;8.57;6.50;;;;;;;;;;5073385;28;20534;-61
2023/09/25 06:10:17;;;;;;;6.70;6.10;;;;;;;;;;5073658;28;20471;-61
2023/09/25 06:12:44;;;;;;;6.73;6.03;;;;;;;;;;5073648;28;20458;-61
2023/09/25 06:15:12;;;;;;;8.10;6.10;;;;;;;;;;5073417;28;20448;-61
2023/09/25 06:17:40;;;;;;;6.83;6.13;;;;;;;;;;5073310;28;21002;-61
2023/09/25 06:20:14;;;;;;;7.33;6.63;;;;;;;;;;5073368;28;20550;-61
2023/09/25 06:22:43;;;;;;;8.13;6.67;;;;;;;;;;5073509;28;20461;-61
2023/09/25 06:25:11;;;;;;;7.57;6.37;;;;;;;;;;5073357;28;20445;-61
2023/09/25 06:27:39;;;;;;;7.83;6.53;;;;;;;;;;5073039;28;20994;-61
2023/09/25 06:30:07;;;;;;;7.70;7.00;;;;;;;;;;5073305;28;20497;-61
2023/09/25 06:32:35;;;;;;;7.80;7.07;;;;;;;;;;5073130;28;20534;-61
2023/09/25 06:35:02;;;;;;;8.07;7.30;;;;;;;;;;5072967;28;20535;-61
2023/09/25 06:37:30;;;;;;;6.57;6.07;;;;;;;;;;5072990;28;20896;-61
2023/09/25 06:39:56;;;;;;;9.90;6.87;;;;;;;;;;5073147;28;20445;-61
2023/09/25 06:42:24;;;;;;;8.20;7.23;;;;;;;;;;5073001;28;20538;-61
2023/09/25 06:44:50;;;;;;;8.40;7.67;;;;;;;;;;5073049;28;20449;-61
2023/09/25 06:47:17;;;;;;;8.07;7.30;;;;;;;;;;5072531;28;20485;-61
2023/09/25 06:49:46;;;;;;;7.77;7.10;;;;;;;;;;5072639;28;20950;-63
2023/09/25 06:52:13;;;;;;;8.00;7.30;;;;;;;;;;5072324;28;21012;-60
2023/09/25 06:54:39;;;;;;;7.93;6.60;;;;;;;;;;5072425;28;20542;-62
2023/09/25 06:57:06;;;;;;;7.53;6.93;;;;;;;;;;5072583;28;20456;-63
2023/09/25 06:59:34;;;;;;;7.87;7.17;;;;;;;;;;5072547;28;20448;-62
2023/09/25 07:02:01;;;;;;;8.00;6.40;;;;;;;;;;5072261;28;20443;-63
2023/09/25 07:04:28;;;;;;;7.03;6.37;;;;;;;;;;5072805;28;20538;-63
2023/09/25 07:06:56;;;;;;;7.83;7.13;;;;;;;;;;5072701;28;20485;-62
2023/09/25 07:09:23;;;;;;;7.77;7.03;;;;;;;;;;5072598;28;20441;-64
2023/09/25 07:11:50;;;;;;;7.80;7.10;;;;;;;;;;5072528;28;20454;-67
2023/09/25 07:14:17;;;;;;;7.33;6.50;;;;;;;;;;5072304;28;20447;-67
2023/09/25 07:16:44;;;;;;;7.83;7.03;;;;;;;;;;5072451;28;20446;-67
2023/09/25 07:19:12;;;;;;;6.70;6.10;;;;;;;;;;5072726;28;20878;-65
2023/09/25 07:21:40;;;;;;;8.80;6.57;;;;;;;;;;5072598;28;20757;-59
2023/09/25 07:24:09;;;;;;;7.93;6.20;;;;;;;;;;5072336;28;20942;-70
2023/09/25 07:26:36;;;;;;;6.40;5.90;;;;;;;;;;5072236;28;20475;-61
2023/09/25 07:29:03;;;;;;;8.13;6.60;;;;;;;;;;5072311;28;20443;-61
2023/09/25 07:31:30;;;;;;;6.57;6.07;;;;;;;;;;5075520;28;20815;-62
2023/09/25 07:33:58;;;;;;;6.90;6.40;;;;;;;;;;5076284;28;20997;-63
2023/09/25 07:36:25;;;;;;;6.97;6.27;;;;;;;;;;5076366;28;20496;-73
2023/09/25 07:38:52;;;;;;;7.80;7.00;;;;;;;;;;5075976;28;20471;-59
2023/09/25 07:41:20;;;;;;;7.40;6.70;;;;;;;;;;5076421;28;20447;-64
2023/09/25 07:43:48;;;;;;;6.80;6.10;;;;;;;;;;5076146;28;20550;-66
2023/09/25 07:46:17;;;;;;;6.90;6.30;;;;;;;;;;5076007;28;20479;-60
2023/09/25 07:48:45;;;;;;;6.90;6.30;;;;;;;;;;5076191;28;20462;-65
2023/09/25 07:51:12;;;;;;;6.90;6.40;;;;;;;;;;5076154;28;20482;-66
2023/09/25 07:53:44;;;;;;;6.93;6.20;;;;;;;;;;5075936;28;20453;-65
2023/09/25 07:56:11;;;;;;;8.03;6.20;;;;;;;;;;5076007;28;20487;-65
2023/09/25 07:58:40;;;;;;;7.10;6.40;;;;;;;;;;5075911;28;20956;-60
2023/09/25 08:01:08;;;;;;;6.30;5.80;;;;;;;;;;5076059;28;20534;-62
2023/09/25 08:03:37;;;;;;;6.17;5.67;;;;;;;;;;5076012;28;20780;-60
2023/09/25 08:06:05;;;;;;;7.30;6.60;;;;;;;;;;5075445;28;20451;-62
2023/09/25 08:08:39;;;;;;;6.10;5.60;;;;;;;;;;5075866;28;20792;-65
2023/09/25 08:11:06;;;;;;;7.00;5.37;;;;;;;;;;5075995;28;20454;-59
2023/09/25 08:13:33;;;;;;;6.00;5.50;;;;;;;;;;5075442;28;20447;-60
2023/09/25 08:16:06;;;;;;;6.30;5.70;;;;;;;;;;5075585;28;20443;-60
2023/09/25 08:18:33;;;;;;;5.30;4.90;;;;;;;;;;5075557;28;20934;-59
2023/09/25 08:21:00;;;;;;;6.20;5.70;;;;;;;;;;5075263;28;20545;-61
2023/09/25 08:23:27;;;;;;;5.67;5.17;;;;;;;;;;5075448;28;20436;-63
2023/09/25 08:25:54;;;;;;;5.10;4.60;;;;;;;;;;5075292;28;21117;-59
2023/09/25 08:28:21;;;;;;;6.97;4.47;;;;;;;;;;5075390;28;20483;-62
2023/09/25 08:30:48;;;;;;;5.33;4.83;;;;;;;;;;5075464;28;20443;-61
2023/09/25 08:33:17;;;;;;;7.63;6.10;;;;;;;;;;5075388;28;20454;-59
2023/09/25 08:35:44;;;;;;;5.40;5.00;;;;;;;;;;5075275;28;20455;-58
2023/09/25 08:38:11;;;;;;;5.20;4.67;;;;;;;;;;5075117;28;20830;-63
2023/09/25 08:40:39;;;;;;;5.00;4.40;;;;;;;;;;5074968;28;21017;-63
2023/09/25 08:43:07;;;;;;;4.00;3.73;;;;;;;;;;5073563;28;20447;-61
2023/09/25 08:45:34;;;;;;;4.40;4.10;;;;;;;;;;5075124;28;20450;-60
2023/09/25 08:48:01;;;;;;;5.23;4.73;;;;;;;;;;5074916;28;20562;-61
2023/09/25 08:50:30;;;;;;;5.20;4.70;;;;;;;;;;5074900;28;20538;-61
2023/09/25 08:52:57;;;;;;;4.50;4.23;;;;;;;;;;5075013;28;20439;-61
2023/09/25 08:55:24;;;;;;;4.53;4.23;;;;;;;;;;5075027;28;20443;-61
2023/09/25 08:57:51;;;;;;;4.20;3.90;;;;;;;;;;5075273;28;20443;-62
2023/09/25 09:00:18;;;;;;;4.80;4.30;;;;;;;;;;5074960;28;20526;-61
2023/09/25 09:02:45;;;;;;;4.63;4.20;;;;;;;;;;5074685;28;20555;-62
2023/09/25 09:05:12;;;;;;;5.43;4.87;;;;;;;;;;5074863;28;20440;-65
2023/09/25 09:07:41;;;;;;;3.73;3.43;;;;;;;;;;5074779;28;20553;-64
2023/09/25 09:10:08;;;;;;;3.87;3.57;;;;;;;;;;5074650;28;20451;-62
2023/09/25 09:12:38;;;;;;;6.40;4.40;;;;;;;;;;5074666;28;20526;-63
2023/09/25 09:15:05;;;;;;;4.07;3.67;;;;;;;;;;5074503;28;20454;-63
2023/09/25 09:17:32;;;;;;;4.70;4.37;;;;;;;;;;5074407;28;20482;-62
2023/09/25 09:19:59;;;;;;;5.30;3.83;;;;;;;;;;5074406;28;20530;-63
2023/09/25 09:22:27;;;;;;;5.23;4.77;;;;;;;;;;5074535;28;20549;-62
2023/09/25 09:24:56;;;;;;;4.30;3.90;;;;;;;;;;5074380;28;20470;-62
2023/09/25 09:27:24;;;;;;;3.70;3.50;;;;;;;;;;5074116;28;20471;-62
2023/09/25 09:29:52;;;;;;;5.57;4.97;;;;;;;;;;5074675;28;20505;-64
2023/09/25 09:32:19;;;;;;;3.50;3.20;;;;;;;;;;5074336;28;20440;-62
2023/09/25 09:34:48;;;;;;;3.70;3.50;;;;;;;;;;5074211;28;20996;-62
2023/09/25 09:37:15;;;;;;;4.13;3.73;;;;;;;;;;5073918;28;21016;-61
2023/09/25 09:39:45;;;;;;;3.30;3.00;;;;;;;;;;5073993;28;20974;-65
2023/09/25 09:42:14;;;;;;;3.10;3.00;;;;;;;;;;5074111;28;20454;-62
2023/09/25 09:44:43;;;;;;;4.37;3.20;;;;;;;;;;5073888;28;20447;-62
2023/09/25 09:47:09;;;;;;;3.33;3.13;;;;;;;;;;5073938;28;20475;-63
2023/09/25 09:49:37;;;;;;;2.67;2.47;;;;;;;;;;5073859;28;20534;-67
2023/09/25 09:52:06;;;;;;;2.87;2.73;;;;;;;;;;5073882;28;20447;-63
2023/09/25 09:54:35;;;;;;;3.70;3.40;;;;;;;;;;5073322;28;20448;-63
2023/09/25 09:57:03;;;;;;;3.00;2.80;;;;;;;;;;5073685;28;20450;-67
2023/09/25 09:59:32;;;;;;;3.58;3.20;;;;;;;;;;5073432;28;20913;-65
2023/09/25 10:01:59;;;;;;;4.33;2.60;;;;;;;;;;5073862;28;20193;-62
2023/09/25 10:04:27;;;;;;;2.63;2.43;;;;;;;;;;5073703;28;20443;-63
2023/09/25 10:06:54;;;;;;;4.27;3.40;;;;;;;;;;5073583;28;20959;-67
2023/09/25 10:09:21;;;;;;;2.87;2.67;;;;;;;;;;5073374;28;20535;-63
2023/09/25 10:11:49;;;;;;;3.10;2.90;;;;;;;;;;5073697;28;20443;-64
2023/09/25 10:14:20;;;;;;;3.40;3.00;;;;;;;;;;5073623;28;20846;-66
2023/09/25 10:16:57;;;;;;;2.87;2.63;;;;;;;;;;5073541;28;20810;-65
2023/09/25 10:19:25;;;;;;;2.73;2.53;;;;;;;;;;5073436;28;20867;-65
2023/09/25 10:22:07;;;;;;;3.13;2.93;;;;;;;;;;5073224;28;20535;-63
2023/09/25 10:24:35;;;;;;;5.40;3.13;;;;;;;;;;5071605;28;20455;-65
2023/09/25 10:27:02;;;;;;;3.03;2.63;;;;;;;;;;5073075;28;20981;-66
2023/09/25 10:29:29;;;;;;;3.63;2.40;;;;;;;;;;5073183;28;20539;-62
2023/09/25 10:31:58;;;;;;;2.77;2.57;;;;;;;;;;5073047;28;20942;-62
2023/09/25 10:34:25;;;;;;;3.17;2.67;;;;;;;;;;5073122;28;20443;-61
2023/09/25 10:36:59;;;;;;;2.90;2.70;;;;;;;;;;5072699;28;20482;-62
2023/09/25 10:39:26;;;;;;;2.60;2.43;;;;;;;;;;5073067;28;20807;-64
2023/09/25 10:41:57;;;;;;;2.40;2.30;;;;;;;;;;5072969;28;20490;-77
2023/09/25 10:44:26;;;;;;;4.50;3.50;;;;;;;;;;5072922;28;20432;-65
2023/09/25 10:46:53;;;;;;;3.60;3.00;;;;;;;;;;5072652;28;20535;-62
2023/09/25 10:49:23;;;;;;;3.00;2.80;;;;;;;;;;5073013;28;20500;-62
2023/09/25 10:51:51;;;;;;;1.87;1.77;;;;;;;;;;5072962;28;20538;-60
2023/09/25 10:54:18;;;;;;;3.07;2.87;;;;;;;;;;5072880;28;20531;-62
2023/09/25 10:56:45;;;;;;;2.90;2.10;;;;;;;;;;5072707;28;20475;-62
2023/09/25 10:59:12;;;;;;;2.40;2.30;;;;;;;;;;5072836;28;20898;-67
2023/09/25 11:01:39;;;;;;;2.70;2.50;;;;;;;;;;5072498;28;20444;-69
2023/09/25 11:04:07;;;;;;;2.93;2.73;;;;;;;;;;5072634;28;20447;-67
2023/09/25 11:06:35;;;;;;;3.07;2.87;;;;;;;;;;5072175;28;20779;-65
2023/09/25 11:09:07;;;;;;;3.33;1.97;;;;;;;;;;5072734;28;20483;-70
2023/09/25 11:11:34;;;;;;;3.70;3.40;;;;;;;;;;5072547;28;20534;-66
2023/09/25 11:14:02;;;;;;;2.83;2.73;;;;;;;;;;5072478;28;20526;-61
2023/09/25 11:16:29;;;;;;;2.70;2.50;;;;;;;;;;5072773;28;20520;-65
2023/09/25 11:19:07;;;;;;;3.40;3.20;;;;;;;;;;5072483;28;21026;-64
2023/09/25 11:21:35;;;;;;;2.97;2.67;;;;;;;;;;5072572;28;20475;-65
2023/09/25 11:24:05;;;;;;;2.57;2.47;;;;;;;;;;5072384;28;20451;-66
2023/09/25 11:26:35;;;;;;;3.30;3.03;;;;;;;;;;5072553;28;20443;-63
2023/09/25 11:29:03;;;;;;;3.00;2.80;;;;;;;;;;5072194;28;20573;-65
2023/09/25 11:31:30;;;;;;;3.50;2.77;;;;;;;;;;5072569;28;20474;-62
2023/09/25 11:33:57;;;;;;;3.10;2.80;;;;;;;;;;5072567;28;20804;-63
2023/09/25 11:36:24;;;;;;;3.77;3.40;;;;;;;;;;5072225;28;20443;-63
2023/09/25 11:38:52;;;;;;;2.90;2.60;;;;;;;;;;5072079;28;20478;-64
2023/09/25 11:41:20;;;;;;;3.13;2.70;;;;;;;;;;5072431;28;20534;-66
2023/09/25 11:43:47;;;;;;;2.60;2.40;;;;;;;;;;5072412;28;20439;-62
2023/09/25 11:46:15;;;;;;;2.70;2.50;;;;;;;;;;5072302;28;20471;-66
2023/09/25 11:48:42;;;;;;;3.00;2.80;;;;;;;;;;5072380;28;20540;-63
2023/09/25 11:51:10;;;;;;;2.70;2.50;;;;;;;;;;5072362;28;20454;-63
2023/09/25 11:53:37;;;;;;;3.30;2.40;;;;;;;;;;5072249;28;20527;-63
2023/09/25 11:56:05;;;;;;;2.30;2.20;;;;;;;;;;5072554;28;20558;-63
2023/09/25 11:58:32;;;;;;;3.80;1.87;;;;;;;;;;5072356;28;20447;-62
2023/09/25 12:00:59;;;;;;;3.00;2.80;;;;;;;;;;5072319;28;20452;-64
2023/09/25 12:03:26;;;;;;;2.53;2.33;;;;;;;;;;5072205;28;20530;-64
2023/09/25 12:05:53;;;;;;;2.10;1.93;;;;;;;;;;5072179;28;20849;-67
2023/09/25 12:08:20;;;;;;;2.30;2.20;;;;;;;;;;5071954;28;20475;-64
2023/09/25 12:10:47;;;;;;;2.27;2.10;;;;;;;;;;5072135;28;20802;-65
2023/09/25 12:13:16;;;;;;;4.00;2.03;;;;;;;;;;5072269;28;20448;-63
2023/09/25 12:15:44;;;;;;;2.50;2.10;;;;;;;;;;5072120;28;20458;-63
2023/09/25 12:18:11;;;;;;;2.27;2.17;;;;;;;;;;5075714;28;20927;-64
2023/09/25 12:20:41;;;;;;;2.30;1.90;;;;;;;;;;5075576;28;20542;-64
2023/09/25 12:23:09;;;;;;;2.10;1.90;;;;;;;;;;5075626;28;20435;-66
2023/09/25 12:25:36;;;;;;;2.33;2.23;;;;;;;;;;5075513;28;20439;-64
2023/09/25 12:28:04;;;;;;;2.40;2.07;;;;;;;;;;5075474;28;20562;-64
2023/09/25 12:30:33;;;;;;;2.00;1.90;;;;;;;;;;5075455;28;20482;-63
2023/09/25 12:33:00;;;;;;;2.03;1.83;;;;;;;;;;5075446;28;20448;-65
2023/09/25 12:35:27;;;;;;;1.80;1.70;;;;;;;;;;5075263;28;20931;-65
2023/09/25 12:37:55;;;;;;;2.90;1.60;;;;;;;;;;5075143;28;20559;-65
2023/09/25 12:40:22;;;;;;;2.10;2.00;;;;;;;;;;5075420;28;20440;-65
2023/09/25 12:42:50;;;;;;;2.60;1.83;;;;;;;;;;5075279;28;20439;-65
2023/09/25 12:45:17;;;;;;;2.30;1.87;;;;;;;;;;5075146;28;20479;-66
2023/09/25 12:47:45;;;;;;;1.97;1.83;;;;;;;;;;5074969;28;20482;-65
2023/09/25 12:50:12;;;;;;;1.70;1.60;;;;;;;;;;5075051;28;20475;-66
2023/09/25 12:52:39;;;;;;;5.33;2.47;;;;;;;;;;5075128;28;20485;-65
2023/09/25 12:55:08;;;;;;;3.07;1.77;;;;;;;;;;5074929;28;20444;-65
2023/09/25 12:57:35;;;;;;;1.47;1.37;;;;;;;;;;5075016;28;20497;-66
2023/09/25 13:00:03;;;;;;;2.40;1.20;;;;;;;;;;5074820;28;20494;-66
2023/09/25 13:02:30;;;;;;;1.80;1.70;;;;;;;;;;5074784;28;20444;-65
2023/09/25 13:04:58;;;;;;;3.40;1.50;;;;;;;;;;5074875;28;20534;-65
2023/09/25 13:07:25;;;;;;;1.40;1.30;;;;;;;;;;5074817;28;20538;-65
2023/09/25 13:09:52;;;;;;;1.40;1.30;;;;;;;;;;5074653;28;20459;-64
2023/09/25 13:12:19;;;;;;;1.50;1.40;;;;;;;;;;5074757;28;20470;-64
2023/09/25 13:14:46;;;;;;;2.80;1.30;;;;;;;;;;5074601;28;20450;-65
2023/09/25 13:17:13;;;;;;;1.40;1.30;;;;;;;;;;5074423;28;20570;-64
2023/09/25 13:19:41;;;;;;;1.40;1.13;;;;;;;;;;5074847;28;20814;-64
2023/09/25 13:22:10;;;;;;;1.40;1.30;;;;;;;;;;5074280;28;20450;-64
2023/09/25 13:24:37;;;;;;;1.43;1.33;;;;;;;;;;5074527;28;20443;-64
2023/09/25 13:27:04;;;;;;;5.33;1.50;;;;;;;;;;5074367;28;20443;-64
2023/09/25 13:29:31;;;;;;;1.40;1.30;;;;;;;;;;5073345;28;20490;-64
2023/09/25 13:31:58;;;;;;;1.60;1.40;;;;;;;;;;5074234;28;20444;-64
2023/09/25 13:34:26;;;;;;;1.83;1.60;;;;;;;;;;5074457;28;20834;-64
2023/09/25 13:36:53;;;;;;;2.20;1.20;;;;;;;;;;5074133;28;20475;-64
2023/09/25 13:39:22;;;;;;;1.40;1.30;;;;;;;;;;5074364;28;20455;-64
2023/09/25 13:41:49;;;;;;;1.73;1.30;;;;;;;;;;5074175;28;20535;-64
2023/09/25 13:44:16;;;;;;;2.23;1.53;;;;;;;;;;5074040;28;20949;-64
2023/09/25 13:46:43;;;;;;;1.93;1.33;;;;;;;;;;5074233;28;20538;-64
2023/09/25 13:49:10;;;;;;;1.50;1.40;;;;;;;;;;5074120;28;20483;-64
2023/09/25 13:51:37;;;;;;;2.13;1.60;;;;;;;;;;5073967;28;20448;-64
2023/09/25 13:54:04;;;;;;;2.57;1.40;;;;;;;;;;5073830;28;20479;-64
2023/09/25 13:56:37;;;;;;;2.03;1.67;;;;;;;;;;5073781;28;20530;-64
2023/09/25 13:59:04;;;;;;;1.57;1.47;;;;;;;;;;5073853;28;20776;-64
2023/09/25 14:01:31;;;;;;;1.40;1.30;;;;;;;;;;5073839;28;20538;-64
2023/09/25 14:03:58;;;;;;;1.30;1.20;;;;;;;;;;5073783;28;21038;-64
2023/09/25 14:06:24;;;;;;;2.30;1.40;;;;;;;;;;5073766;28;20446;-64
2023/09/25 14:08:52;;;;;;;2.00;1.80;;;;;;;;;;5073495;28;20475;-64
2023/09/25 14:11:19;;;;;;;1.97;1.80;;;;;;;;;;5073500;28;20447;-64
2023/09/25 14:13:47;;;;;;;2.90;2.03;;;;;;;;;;5073747;28;20534;-64
2023/09/25 14:16:14;;;;;;;1.77;1.67;;;;;;;;;;5073847;28;20956;-64
2023/09/25 14:18:41;;;;;;;1.63;1.53;;;;;;;;;;5073284;28;20534;-64
2023/09/25 14:21:08;;;;;;;2.50;1.40;;;;;;;;;;5073428;28;20546;-64
2023/09/25 14:23:35;;;;;;;1.43;1.30;;;;;;;;;;5073292;28;20526;-64
2023/09/25 14:26:02;;;;;;;1.40;1.30;;;;;;;;;;5073287;28;20444;-64
2023/09/25 14:28:30;;;;;;;1.77;1.60;;;;;;;;;;5073314;28;20467;-64
2023/09/25 14:30:58;;;;;;;2.23;1.50;;;;;;;;;;5073329;28;20505;-64
2023/09/25 14:33:26;;;;;;;1.80;1.70;;;;;;;;;;5073286;28;20807;-63
2023/09/25 14:35:53;;;;;;;2.13;1.70;;;;;;;;;;5073182;28;20870;-63
2023/09/25 14:38:20;;;;;;;1.40;1.30;;;;;;;;;;5072848;28;20865;-65
2023/09/25 14:40:47;;;;;;;1.73;1.63;;;;;;;;;;5073219;28;20447;-65
2023/09/25 14:43:14;;;;;;;1.73;1.63;;;;;;;;;;5072986;28;20588;-64
2023/09/25 14:45:42;;;;;;;6.43;1.90;;;;;;;;;;5073022;28;20451;-65